KOGD/OGD METAR and TAF weather

Enter ICAO airport designator
Station Type Date Time Source
KOGD METAR 2020/06/06 01:53 UTC NOAA

KOGD 060153Z 17018G30KT 10SM FEW110 33/M02 A2967 RMK AO2 PK WND 16041/0128 SLP975 T03281017 $


Station Type Date Time Source
KOGD Decoded METAR 2020/06/06 01:53 UTC NOAA

OGDEN-HINCKLEY AIRPORT, UT, United States (KOGD) 41-12N 112-01W 1353M
Jun 05, 2020 - 09:53 PM EDT / 2020.06.06 0153 UTC
Wind: from the S (170 degrees) at 21 MPH (18 KT) gusting to 35 MPH (30 KT):0
Visibility: 10 mile(s):0
Sky conditions: mostly clear
Temperature: 91.0 F (32.8 C)
Dew Point: 28.9 F (-1.7 C)
Relative Humidity: 10%
Pressure (altimeter): 29.67 in. Hg (1004 hPa)
ob: KOGD 060153Z 17018G30KT 10SM FEW110 33/M02 A2967 RMK AO2 PK WND 16041/0128 SLP975 T03281017
cycle: 2

Station Type Date Time Source
KOGD TAF 2020/06/06 01:42 UTC NOAA

TAF
AMD KOGD 060040Z 0601/0624 16011KT P6SM VCTS BKN100CB
TEMPO 0602/0603 17030G45KT
FM060600 16015G25KT P6SM VCSH BKN100
FM061200 16008KT P6SM BKN150
FM061700 18012G23KT P6SM BKN150
FM062100 24014G24KT P6SM VCSH BKN060

Example: see airport list